sensor_id;sensor_type;location;lat;lon;timestamp;P1;durP1;ratioP1;P2;durP2;ratioP2
77453;SDS011;66538;53.150;18.160;2023-07-13T00:01:48;21.20;;;15.00;;
77453;SDS011;66538;53.150;18.160;2023-07-13T00:04:16;20.40;;;13.90;;
77453;SDS011;66538;53.150;18.160;2023-07-13T00:06:44;26.40;;;15.80;;
77453;SDS011;66538;53.150;18.160;2023-07-13T00:09:12;22.60;;;16.20;;
77453;SDS011;66538;53.150;18.160;2023-07-13T00:11:40;25.00;;;16.80;;
77453;SDS011;66538;53.150;18.160;2023-07-13T00:14:08;20.70;;;12.70;;
77453;SDS011;66538;53.150;18.160;2023-07-13T00:16:36;18.30;;;12.70;;
77453;SDS011;66538;53.150;18.160;2023-07-13T00:19:05;20.70;;;14.10;;
77453;SDS011;66538;53.150;18.160;2023-07-13T00:21:32;16.40;;;11.80;;
77453;SDS011;66538;53.150;18.160;2023-07-13T00:23:59;16.20;;;11.60;;
77453;SDS011;66538;53.150;18.160;2023-07-13T00:26:26;15.60;;;11.40;;
77453;SDS011;66538;53.150;18.160;2023-07-13T00:28:53;15.10;;;10.70;;
77453;SDS011;66538;53.150;18.160;2023-07-13T00:31:20;17.80;;;10.80;;
77453;SDS011;66538;53.150;18.160;2023-07-13T00:33:47;13.70;;;10.40;;
77453;SDS011;66538;53.150;18.160;2023-07-13T00:36:14;12.00;;;8.60;;
77453;SDS011;66538;53.150;18.160;2023-07-13T00:38:41;14.00;;;9.00;;
77453;SDS011;66538;53.150;18.160;2023-07-13T00:41:08;12.50;;;8.40;;
77453;SDS011;66538;53.150;18.160;2023-07-13T00:43:34;12.50;;;9.40;;
77453;SDS011;66538;53.150;18.160;2023-07-13T00:46:09;12.40;;;9.00;;
77453;SDS011;66538;53.150;18.160;2023-07-13T00:48:42;12.70;;;8.70;;
77453;SDS011;66538;53.150;18.160;2023-07-13T00:51:10;11.30;;;8.60;;
77453;SDS011;66538;53.150;18.160;2023-07-13T00:53:40;9.80;;;7.30;;
77453;SDS011;66538;53.150;18.160;2023-07-13T00:56:07;11.30;;;8.00;;
77453;SDS011;66538;53.150;18.160;2023-07-13T00:58:35;12.20;;;9.20;;
77453;SDS011;66538;53.150;18.160;2023-07-13T01:01:02;14.40;;;9.10;;
77453;SDS011;66538;53.150;18.160;2023-07-13T01:03:28;13.60;;;8.90;;
77453;SDS011;66538;53.150;18.160;2023-07-13T01:05:55;10.70;;;8.20;;
77453;SDS011;66538;53.150;18.160;2023-07-13T01:08:22;14.50;;;9.90;;
77453;SDS011;66538;53.150;18.160;2023-07-13T01:10:55;10.50;;;7.40;;
77453;SDS011;66538;53.150;18.160;2023-07-13T01:13:24;11.10;;;8.00;;
77453;SDS011;66538;53.150;18.160;2023-07-13T01:15:51;11.10;;;8.80;;
77453;SDS011;66538;53.150;18.160;2023-07-13T01:18:21;11.10;;;7.10;;
77453;SDS011;66538;53.150;18.160;2023-07-13T01:20:52;9.90;;;7.10;;
77453;SDS011;66538;53.150;18.160;2023-07-13T01:23:23;10.20;;;7.30;;
77453;SDS011;66538;53.150;18.160;2023-07-13T01:25:51;10.90;;;7.80;;
77453;SDS011;66538;53.150;18.160;2023-07-13T01:28:19;12.60;;;8.20;;
77453;SDS011;66538;53.150;18.160;2023-07-13T01:30:46;9.90;;;7.70;;
77453;SDS011;66538;53.150;18.160;2023-07-13T01:33:13;11.50;;;8.50;;
77453;SDS011;66538;53.150;18.160;2023-07-13T01:35:43;11.40;;;7.40;;
77453;SDS011;66538;53.150;18.160;2023-07-13T01:38:11;11.40;;;7.40;;
77453;SDS011;66538;53.150;18.160;2023-07-13T01:40:43;9.00;;;7.50;;
77453;SDS011;66538;53.150;18.160;2023-07-13T01:43:10;10.00;;;7.30;;
77453;SDS011;66538;53.150;18.160;2023-07-13T01:45:37;9.80;;;7.20;;
77453;SDS011;66538;53.150;18.160;2023-07-13T01:48:04;8.10;;;5.90;;
77453;SDS011;66538;53.150;18.160;2023-07-13T01:50:33;8.10;;;6.20;;
77453;SDS011;66538;53.150;18.160;2023-07-13T01:53:00;9.30;;;6.30;;
77453;SDS011;66538;53.150;18.160;2023-07-13T01:55:28;9.40;;;6.40;;
77453;SDS011;66538;53.150;18.160;2023-07-13T01:57:56;10.00;;;6.80;;
77453;SDS011;66538;53.150;18.160;2023-07-13T02:00:23;9.80;;;7.20;;
77453;SDS011;66538;53.150;18.160;2023-07-13T02:02:51;8.40;;;6.50;;
77453;SDS011;66538;53.150;18.160;2023-07-13T02:05:18;10.80;;;6.90;;
77453;SDS011;66538;53.150;18.160;2023-07-13T02:07:44;9.30;;;6.70;;
77453;SDS011;66538;53.150;18.160;2023-07-13T02:10:11;9.00;;;6.80;;
77453;SDS011;66538;53.150;18.160;2023-07-13T02:12:38;9.20;;;6.30;;
77453;SDS011;66538;53.150;18.160;2023-07-13T02:15:06;9.70;;;6.90;;
77453;SDS011;66538;53.150;18.160;2023-07-13T02:17:33;9.40;;;6.80;;
77453;SDS011;66538;53.150;18.160;2023-07-13T02:20:02;10.30;;;6.70;;
77453;SDS011;66538;53.150;18.160;2023-07-13T02:22:31;10.20;;;7.00;;
77453;SDS011;66538;53.150;18.160;2023-07-13T02:24:57;11.80;;;6.40;;
77453;SDS011;66538;53.150;18.160;2023-07-13T02:27:25;9.90;;;6.60;;
77453;SDS011;66538;53.150;18.160;2023-07-13T02:29:52;8.70;;;5.90;;
77453;SDS011;66538;53.150;18.160;2023-07-13T02:32:20;9.90;;;6.90;;
77453;SDS011;66538;53.150;18.160;2023-07-13T02:34:47;10.40;;;6.20;;
77453;SDS011;66538;53.150;18.160;2023-07-13T02:37:14;8.90;;;6.30;;
77453;SDS011;66538;53.150;18.160;2023-07-13T02:39:41;9.80;;;6.80;;
77453;SDS011;66538;53.150;18.160;2023-07-13T02:42:07;9.00;;;7.00;;
77453;SDS011;66538;53.150;18.160;2023-07-13T02:44:34;9.60;;;6.30;;
77453;SDS011;66538;53.150;18.160;2023-07-13T02:47:01;10.90;;;7.40;;
77453;SDS011;66538;53.150;18.160;2023-07-13T02:49:27;9.10;;;7.20;;
77453;SDS011;66538;53.150;18.160;2023-07-13T02:51:54;12.70;;;8.20;;
77453;SDS011;66538;53.150;18.160;2023-07-13T02:54:20;8.90;;;7.00;;
77453;SDS011;66538;53.150;18.160;2023-07-13T02:56:47;9.90;;;7.20;;
77453;SDS011;66538;53.150;18.160;2023-07-13T02:59:14;11.00;;;7.60;;
77453;SDS011;66538;53.150;18.160;2023-07-13T03:01:41;11.60;;;7.30;;
77453;SDS011;66538;53.150;18.160;2023-07-13T03:04:07;9.70;;;6.60;;
77453;SDS011;66538;53.150;18.160;2023-07-13T03:06:34;9.40;;;7.70;;
77453;SDS011;66538;53.150;18.160;2023-07-13T03:09:02;10.40;;;6.60;;
77453;SDS011;66538;53.150;18.160;2023-07-13T03:11:30;9.40;;;6.90;;
77453;SDS011;66538;53.150;18.160;2023-07-13T03:14:04;11.40;;;7.10;;
77453;SDS011;66538;53.150;18.160;2023-07-13T03:16:33;9.90;;;6.80;;
77453;SDS011;66538;53.150;18.160;2023-07-13T03:19:00;8.60;;;6.90;;
77453;SDS011;66538;53.150;18.160;2023-07-13T03:21:27;9.90;;;7.00;;
77453;SDS011;66538;53.150;18.160;2023-07-13T03:23:54;9.60;;;7.10;;
77453;SDS011;66538;53.150;18.160;2023-07-13T03:26:21;10.40;;;7.80;;
77453;SDS011;66538;53.150;18.160;2023-07-13T03:28:48;9.00;;;6.80;;
77453;SDS011;66538;53.150;18.160;2023-07-13T03:31:19;10.10;;;6.70;;
77453;SDS011;66538;53.150;18.160;2023-07-13T03:33:47;11.00;;;6.90;;
77453;SDS011;66538;53.150;18.160;2023-07-13T03:36:16;11.30;;;7.30;;
77453;SDS011;66538;53.150;18.160;2023-07-13T03:38:50;11.30;;;8.00;;
77453;SDS011;66538;53.150;18.160;2023-07-13T03:41:21;10.60;;;6.80;;
77453;SDS011;66538;53.150;18.160;2023-07-13T03:43:49;10.90;;;7.80;;
77453;SDS011;66538;53.150;18.160;2023-07-13T03:48:45;10.50;;;7.40;;
77453;SDS011;66538;53.150;18.160;2023-07-13T03:51:13;10.20;;;7.10;;
77453;SDS011;66538;53.150;18.160;2023-07-13T03:53:42;10.30;;;7.90;;
77453;SDS011;66538;53.150;18.160;2023-07-13T03:56:10;10.60;;;8.20;;
77453;SDS011;66538;53.150;18.160;2023-07-13T03:58:39;12.50;;;9.70;;
77453;SDS011;66538;53.150;18.160;2023-07-13T04:01:15;10.40;;;9.00;;
77453;SDS011;66538;53.150;18.160;2023-07-13T04:03:42;13.40;;;9.60;;
77453;SDS011;66538;53.150;18.160;2023-07-13T04:06:16;13.90;;;9.60;;
77453;SDS011;66538;53.150;18.160;2023-07-13T04:08:49;12.20;;;8.50;;
77453;SDS011;66538;53.150;18.160;2023-07-13T04:11:18;10.20;;;8.40;;
77453;SDS011;66538;53.150;18.160;2023-07-13T04:13:46;11.80;;;8.30;;
77453;SDS011;66538;53.150;18.160;2023-07-13T04:16:14;12.10;;;8.90;;
77453;SDS011;66538;53.150;18.160;2023-07-13T04:18:41;14.90;;;9.40;;
77453;SDS011;66538;53.150;18.160;2023-07-13T04:21:08;10.40;;;7.90;;
77453;SDS011;66538;53.150;18.160;2023-07-13T04:23:36;11.30;;;8.60;;
77453;SDS011;66538;53.150;18.160;2023-07-13T04:26:03;13.70;;;8.90;;
77453;SDS011;66538;53.150;18.160;2023-07-13T04:28:31;11.20;;;7.90;;
77453;SDS011;66538;53.150;18.160;2023-07-13T04:30:57;12.00;;;9.00;;
77453;SDS011;66538;53.150;18.160;2023-07-13T04:33:24;12.60;;;9.00;;
77453;SDS011;66538;53.150;18.160;2023-07-13T04:35:51;12.30;;;9.20;;
77453;SDS011;66538;53.150;18.160;2023-07-13T04:38:23;13.10;;;10.50;;
77453;SDS011;66538;53.150;18.160;2023-07-13T04:40:51;13.00;;;8.50;;
77453;SDS011;66538;53.150;18.160;2023-07-13T04:43:18;14.30;;;9.80;;
77453;SDS011;66538;53.150;18.160;2023-07-13T04:45:45;12.30;;;10.30;;
77453;SDS011;66538;53.150;18.160;2023-07-13T04:48:12;13.40;;;10.30;;
77453;SDS011;66538;53.150;18.160;2023-07-13T04:50:38;13.50;;;10.20;;
77453;SDS011;66538;53.150;18.160;2023-07-13T04:53:05;12.80;;;9.40;;
77453;SDS011;66538;53.150;18.160;2023-07-13T04:55:32;12.60;;;9.90;;
77453;SDS011;66538;53.150;18.160;2023-07-13T04:57:59;13.50;;;10.40;;
77453;SDS011;66538;53.150;18.160;2023-07-13T05:00:26;13.60;;;9.90;;
77453;SDS011;66538;53.150;18.160;2023-07-13T05:05:21;12.90;;;9.00;;
77453;SDS011;66538;53.150;18.160;2023-07-13T05:07:48;14.70;;;9.20;;
77453;SDS011;66538;53.150;18.160;2023-07-13T05:10:15;13.80;;;8.90;;
77453;SDS011;66538;53.150;18.160;2023-07-13T05:12:42;12.80;;;8.70;;
77453;SDS011;66538;53.150;18.160;2023-07-13T05:15:09;12.80;;;8.50;;
77453;SDS011;66538;53.150;18.160;2023-07-13T05:17:36;11.60;;;8.10;;
77453;SDS011;66538;53.150;18.160;2023-07-13T05:20:02;10.30;;;8.30;;
77453;SDS011;66538;53.150;18.160;2023-07-13T05:22:29;10.00;;;7.80;;
77453;SDS011;66538;53.150;18.160;2023-07-13T05:24:56;10.80;;;8.20;;
77453;SDS011;66538;53.150;18.160;2023-07-13T05:27:23;12.30;;;8.20;;
77453;SDS011;66538;53.150;18.160;2023-07-13T05:29:49;11.40;;;8.20;;
77453;SDS011;66538;53.150;18.160;2023-07-13T05:32:16;11.00;;;7.60;;
77453;SDS011;66538;53.150;18.160;2023-07-13T05:37:10;8.00;;;5.60;;
77453;SDS011;66538;53.150;18.160;2023-07-13T05:39:37;8.30;;;5.20;;
77453;SDS011;66538;53.150;18.160;2023-07-13T05:42:04;9.30;;;4.20;;
77453;SDS011;66538;53.150;18.160;2023-07-13T05:44:31;6.40;;;4.00;;
77453;SDS011;66538;53.150;18.160;2023-07-13T05:46:57;6.90;;;4.40;;
77453;SDS011;66538;53.150;18.160;2023-07-13T05:49:24;6.40;;;3.90;;
77453;SDS011;66538;53.150;18.160;2023-07-13T05:51:50;6.70;;;3.80;;
77453;SDS011;66538;53.150;18.160;2023-07-13T05:54:17;11.80;;;4.30;;
77453;SDS011;66538;53.150;18.160;2023-07-13T05:56:44;9.60;;;4.10;;
77453;SDS011;66538;53.150;18.160;2023-07-13T05:59:10;7.60;;;3.30;;
77453;SDS011;66538;53.150;18.160;2023-07-13T06:01:37;6.50;;;3.70;;
77453;SDS011;66538;53.150;18.160;2023-07-13T06:04:03;7.60;;;4.20;;
77453;SDS011;66538;53.150;18.160;2023-07-13T06:06:30;7.60;;;5.20;;
77453;SDS011;66538;53.150;18.160;2023-07-13T06:08:57;8.40;;;5.30;;
77453;SDS011;66538;53.150;18.160;2023-07-13T06:11:24;9.20;;;5.10;;
77453;SDS011;66538;53.150;18.160;2023-07-13T06:13:53;10.50;;;5.40;;
77453;SDS011;66538;53.150;18.160;2023-07-13T06:16:20;9.00;;;4.60;;
77453;SDS011;66538;53.150;18.160;2023-07-13T06:18:47;8.70;;;4.20;;
77453;SDS011;66538;53.150;18.160;2023-07-13T06:21:18;8.70;;;4.40;;
77453;SDS011;66538;53.150;18.160;2023-07-13T06:23:47;7.90;;;4.30;;
77453;SDS011;66538;53.150;18.160;2023-07-13T06:26:15;11.00;;;5.00;;
77453;SDS011;66538;53.150;18.160;2023-07-13T06:28:43;7.70;;;4.20;;
77453;SDS011;66538;53.150;18.160;2023-07-13T06:31:11;5.80;;;3.70;;
77453;SDS011;66538;53.150;18.160;2023-07-13T06:33:39;7.70;;;4.00;;
77453;SDS011;66538;53.150;18.160;2023-07-13T06:36:06;10.30;;;3.90;;
77453;SDS011;66538;53.150;18.160;2023-07-13T06:38:34;6.20;;;3.70;;
77453;SDS011;66538;53.150;18.160;2023-07-13T06:41:01;7.50;;;3.80;;
77453;SDS011;66538;53.150;18.160;2023-07-13T06:43:28;8.50;;;4.10;;
77453;SDS011;66538;53.150;18.160;2023-07-13T06:45:56;7.90;;;3.80;;
77453;SDS011;66538;53.150;18.160;2023-07-13T06:48:22;8.30;;;3.30;;
77453;SDS011;66538;53.150;18.160;2023-07-13T06:50:49;7.30;;;3.90;;
77453;SDS011;66538;53.150;18.160;2023-07-13T06:55:45;5.50;;;3.00;;
77453;SDS011;66538;53.150;18.160;2023-07-13T06:58:12;7.60;;;2.80;;
77453;SDS011;66538;53.150;18.160;2023-07-13T07:00:39;6.10;;;2.90;;
77453;SDS011;66538;53.150;18.160;2023-07-13T07:03:06;7.70;;;3.40;;
77453;SDS011;66538;53.150;18.160;2023-07-13T07:05:33;5.70;;;2.70;;
77453;SDS011;66538;53.150;18.160;2023-07-13T07:08:00;8.10;;;2.70;;
77453;SDS011;66538;53.150;18.160;2023-07-13T07:10:28;6.20;;;2.60;;
77453;SDS011;66538;53.150;18.160;2023-07-13T07:12:56;10.80;;;3.50;;
77453;SDS011;66538;53.150;18.160;2023-07-13T07:15:26;6.50;;;2.60;;
77453;SDS011;66538;53.150;18.160;2023-07-13T07:17:53;5.40;;;2.40;;
77453;SDS011;66538;53.150;18.160;2023-07-13T07:20:20;6.60;;;2.40;;
77453;SDS011;66538;53.150;18.160;2023-07-13T07:22:47;6.90;;;2.70;;
77453;SDS011;66538;53.150;18.160;2023-07-13T07:25:15;4.60;;;2.20;;
77453;SDS011;66538;53.150;18.160;2023-07-13T07:27:42;8.80;;;3.40;;
77453;SDS011;66538;53.150;18.160;2023-07-13T07:30:08;6.40;;;3.60;;
77453;SDS011;66538;53.150;18.160;2023-07-13T07:32:36;8.00;;;3.50;;
77453;SDS011;66538;53.150;18.160;2023-07-13T07:35:02;8.10;;;3.20;;
77453;SDS011;66538;53.150;18.160;2023-07-13T07:37:29;7.60;;;3.00;;
77453;SDS011;66538;53.150;18.160;2023-07-13T07:39:56;6.40;;;3.10;;
77453;SDS011;66538;53.150;18.160;2023-07-13T07:42:22;7.80;;;3.60;;
77453;SDS011;66538;53.150;18.160;2023-07-13T07:44:49;7.20;;;3.00;;
77453;SDS011;66538;53.150;18.160;2023-07-13T07:47:16;6.30;;;2.40;;
77453;SDS011;66538;53.150;18.160;2023-07-13T07:49:42;5.80;;;2.80;;
77453;SDS011;66538;53.150;18.160;2023-07-13T07:52:09;6.30;;;2.60;;
77453;SDS011;66538;53.150;18.160;2023-07-13T07:54:35;6.10;;;2.80;;
77453;SDS011;66538;53.150;18.160;2023-07-13T07:57:02;5.50;;;2.90;;
77453;SDS011;66538;53.150;18.160;2023-07-13T07:59:29;6.70;;;3.00;;
77453;SDS011;66538;53.150;18.160;2023-07-13T08:01:55;5.60;;;2.30;;
77453;SDS011;66538;53.150;18.160;2023-07-13T08:04:22;5.90;;;2.80;;
77453;SDS011;66538;53.150;18.160;2023-07-13T08:06:49;6.60;;;2.80;;
77453;SDS011;66538;53.150;18.160;2023-07-13T08:09:15;9.10;;;2.90;;
77453;SDS011;66538;53.150;18.160;2023-07-13T08:11:42;8.80;;;2.90;;
77453;SDS011;66538;53.150;18.160;2023-07-13T08:14:08;5.70;;;2.10;;
77453;SDS011;66538;53.150;18.160;2023-07-13T08:16:35;6.40;;;2.40;;
77453;SDS011;66538;53.150;18.160;2023-07-13T08:19:02;6.60;;;2.80;;
77453;SDS011;66538;53.150;18.160;2023-07-13T08:21:29;5.80;;;2.30;;
77453;SDS011;66538;53.150;18.160;2023-07-13T08:23:55;6.70;;;3.10;;
77453;SDS011;66538;53.150;18.160;2023-07-13T08:26:22;7.20;;;3.30;;
77453;SDS011;66538;53.150;18.160;2023-07-13T08:28:49;6.70;;;2.70;;
77453;SDS011;66538;53.150;18.160;2023-07-13T08:31:15;4.90;;;2.80;;
77453;SDS011;66538;53.150;18.160;2023-07-13T08:33:42;5.40;;;2.70;;
77453;SDS011;66538;53.150;18.160;2023-07-13T08:36:08;6.50;;;2.80;;
77453;SDS011;66538;53.150;18.160;2023-07-13T08:38:35;6.70;;;3.10;;
77453;SDS011;66538;53.150;18.160;2023-07-13T08:41:03;6.40;;;2.90;;
77453;SDS011;66538;53.150;18.160;2023-07-13T08:43:39;4.60;;;2.40;;
77453;SDS011;66538;53.150;18.160;2023-07-13T08:46:09;5.80;;;2.50;;
77453;SDS011;66538;53.150;18.160;2023-07-13T08:48:52;6.80;;;2.90;;
77453;SDS011;66538;53.150;18.160;2023-07-13T08:51:31;5.70;;;2.80;;
77453;SDS011;66538;53.150;18.160;2023-07-13T08:54:38;5.20;;;2.30;;
77453;SDS011;66538;53.150;18.160;2023-07-13T08:57:02;10.10;;;2.60;;
77453;SDS011;66538;53.150;18.160;2023-07-13T08:59:37;6.50;;;3.00;;
77453;SDS011;66538;53.150;18.160;2023-07-13T09:02:08;5.20;;;2.70;;
77453;SDS011;66538;53.150;18.160;2023-07-13T09:04:46;6.90;;;2.70;;
77453;SDS011;66538;53.150;18.160;2023-07-13T09:12:53;5.50;;;2.80;;
77453;SDS011;66538;53.150;18.160;2023-07-13T09:15:24;6.10;;;2.50;;
77453;SDS011;66538;53.150;18.160;2023-07-13T09:17:59;5.80;;;2.30;;
77453;SDS011;66538;53.150;18.160;2023-07-13T09:20:36;5.90;;;2.60;;
77453;SDS011;66538;53.150;18.160;2023-07-13T09:23:10;6.10;;;2.30;;
77453;SDS011;66538;53.150;18.160;2023-07-13T09:25:41;7.10;;;2.50;;
77453;SDS011;66538;53.150;18.160;2023-07-13T09:28:18;5.00;;;2.30;;
77453;SDS011;66538;53.150;18.160;2023-07-13T09:33:39;5.90;;;2.50;;
77453;SDS011;66538;53.150;18.160;2023-07-13T09:36:16;6.10;;;2.50;;
77453;SDS011;66538;53.150;18.160;2023-07-13T09:38:45;4.80;;;1.80;;
77453;SDS011;66538;53.150;18.160;2023-07-13T09:44:09;4.90;;;2.00;;
77453;SDS011;66538;53.150;18.160;2023-07-13T09:46:45;6.70;;;2.30;;
77453;SDS011;66538;53.150;18.160;2023-07-13T09:49:18;4.70;;;2.00;;
77453;SDS011;66538;53.150;18.160;2023-07-13T09:51:45;4.80;;;1.90;;
77453;SDS011;66538;53.150;18.160;2023-07-13T09:54:23;6.60;;;2.10;;
77453;SDS011;66538;53.150;18.160;2023-07-13T09:56:57;4.30;;;1.90;;
77453;SDS011;66538;53.150;18.160;2023-07-13T09:59:29;4.90;;;2.10;;
77453;SDS011;66538;53.150;18.160;2023-07-13T10:01:57;4.30;;;2.10;;
77453;SDS011;66538;53.150;18.160;2023-07-13T10:04:29;5.00;;;2.10;;
77453;SDS011;66538;53.150;18.160;2023-07-13T10:07:08;5.10;;;2.10;;
77453;SDS011;66538;53.150;18.160;2023-07-13T10:09:40;4.70;;;1.80;;
77453;SDS011;66538;53.150;18.160;2023-07-13T10:12:14;7.00;;;2.00;;
77453;SDS011;66538;53.150;18.160;2023-07-13T10:14:41;5.80;;;1.90;;
77453;SDS011;66538;53.150;18.160;2023-07-13T10:17:10;8.70;;;2.30;;
77453;SDS011;66538;53.150;18.160;2023-07-13T10:19:41;6.00;;;1.90;;
77453;SDS011;66538;53.150;18.160;2023-07-13T10:22:14;5.90;;;2.20;;
77453;SDS011;66538;53.150;18.160;2023-07-13T10:24:46;6.50;;;2.30;;
77453;SDS011;66538;53.150;18.160;2023-07-13T10:29:52;7.90;;;2.60;;
77453;SDS011;66538;53.150;18.160;2023-07-13T10:32:26;7.10;;;2.50;;
77453;SDS011;66538;53.150;18.160;2023-07-13T10:34:53;6.80;;;2.60;;
77453;SDS011;66538;53.150;18.160;2023-07-13T10:37:22;5.70;;;2.40;;
77453;SDS011;66538;53.150;18.160;2023-07-13T10:39:51;7.30;;;2.50;;
77453;SDS011;66538;53.150;18.160;2023-07-13T10:42:25;5.80;;;2.30;;
77453;SDS011;66538;53.150;18.160;2023-07-13T10:44:58;4.80;;;1.80;;
77453;SDS011;66538;53.150;18.160;2023-07-13T10:47:25;6.10;;;2.00;;
77453;SDS011;66538;53.150;18.160;2023-07-13T10:52:43;4.70;;;2.00;;
77453;SDS011;66538;53.150;18.160;2023-07-13T11:03:34;4.90;;;2.50;;
77453;SDS011;66538;53.150;18.160;2023-07-13T11:06:17;9.10;;;3.50;;
77453;SDS011;66538;53.150;18.160;2023-07-13T11:09:42;5.80;;;2.70;;
77453;SDS011;66538;53.150;18.160;2023-07-13T11:15:00;5.40;;;2.10;;
77453;SDS011;66538;53.150;18.160;2023-07-13T11:25:34;4.40;;;1.90;;
77453;SDS011;66538;53.150;18.160;2023-07-13T11:36:12;5.10;;;2.10;;
77453;SDS011;66538;53.150;18.160;2023-07-13T11:38:35;4.40;;;2.20;;
77453;SDS011;66538;53.150;18.160;2023-07-13T11:41:05;6.70;;;2.50;;
77453;SDS011;66538;53.150;18.160;2023-07-13T11:43:39;4.40;;;2.00;;
77453;SDS011;66538;53.150;18.160;2023-07-13T11:46:23;6.20;;;2.40;;
77453;SDS011;66538;53.150;18.160;2023-07-13T11:48:52;7.40;;;2.20;;
77453;SDS011;66538;53.150;18.160;2023-07-13T11:51:24;4.80;;;2.40;;
77453;SDS011;66538;53.150;18.160;2023-07-13T11:53:54;4.60;;;2.40;;
77453;SDS011;66538;53.150;18.160;2023-07-13T11:56:23;6.00;;;2.10;;
77453;SDS011;66538;53.150;18.160;2023-07-13T11:58:52;5.60;;;2.30;;
77453;SDS011;66538;53.150;18.160;2023-07-13T12:01:22;5.20;;;2.40;;
77453;SDS011;66538;53.150;18.160;2023-07-13T12:03:52;4.70;;;2.30;;
77453;SDS011;66538;53.150;18.160;2023-07-13T12:09:01;5.30;;;2.20;;
77453;SDS011;66538;53.150;18.160;2023-07-13T12:11:35;5.20;;;2.60;;
77453;SDS011;66538;53.150;18.160;2023-07-13T12:14:03;4.40;;;2.10;;
77453;SDS011;66538;53.150;18.160;2023-07-13T12:16:30;5.70;;;2.20;;
77453;SDS011;66538;53.150;18.160;2023-07-13T12:18:59;6.00;;;2.40;;
77453;SDS011;66538;53.150;18.160;2023-07-13T12:21:34;4.20;;;1.90;;
77453;SDS011;66538;53.150;18.160;2023-07-13T12:24:12;4.60;;;2.00;;
77453;SDS011;66538;53.150;18.160;2023-07-13T12:26:41;4.30;;;2.10;;
77453;SDS011;66538;53.150;18.160;2023-07-13T12:29:07;4.60;;;2.10;;
77453;SDS011;66538;53.150;18.160;2023-07-13T12:31:36;5.80;;;2.30;;
77453;SDS011;66538;53.150;18.160;2023-07-13T12:34:08;5.20;;;2.50;;
77453;SDS011;66538;53.150;18.160;2023-07-13T12:36:40;5.10;;;2.10;;
77453;SDS011;66538;53.150;18.160;2023-07-13T12:42:13;5.10;;;2.00;;
77453;SDS011;66538;53.150;18.160;2023-07-13T12:44:57;4.90;;;2.10;;
77453;SDS011;66538;53.150;18.160;2023-07-13T12:47:31;5.70;;;2.20;;
77453;SDS011;66538;53.150;18.160;2023-07-13T12:50:12;5.00;;;1.90;;
77453;SDS011;66538;53.150;18.160;2023-07-13T12:53:05;4.60;;;2.10;;
77453;SDS011;66538;53.150;18.160;2023-07-13T12:55:51;4.80;;;2.00;;
77453;SDS011;66538;53.150;18.160;2023-07-13T12:58:22;6.10;;;2.30;;
77453;SDS011;66538;53.150;18.160;2023-07-13T13:00:54;4.70;;;1.70;;
77453;SDS011;66538;53.150;18.160;2023-07-13T13:03:25;4.30;;;2.00;;
77453;SDS011;66538;53.150;18.160;2023-07-13T13:08:54;4.10;;;1.90;;
77453;SDS011;66538;53.150;18.160;2023-07-13T13:11:25;4.60;;;1.90;;
77453;SDS011;66538;53.150;18.160;2023-07-13T13:13:54;5.50;;;2.30;;
77453;SDS011;66538;53.150;18.160;2023-07-13T13:19:18;3.90;;;1.90;;
77453;SDS011;66538;53.150;18.160;2023-07-13T13:21:48;7.40;;;2.10;;
77453;SDS011;66538;53.150;18.160;2023-07-13T13:24:17;4.40;;;1.70;;
77453;SDS011;66538;53.150;18.160;2023-07-13T13:26:46;7.70;;;2.10;;
77453;SDS011;66538;53.150;18.160;2023-07-13T13:31:51;5.10;;;2.20;;
77453;SDS011;66538;53.150;18.160;2023-07-13T13:34:19;5.70;;;2.10;;
77453;SDS011;66538;53.150;18.160;2023-07-13T13:36:50;4.20;;;1.90;;
77453;SDS011;66538;53.150;18.160;2023-07-13T13:39:22;5.20;;;1.80;;
77453;SDS011;66538;53.150;18.160;2023-07-13T13:41:52;4.40;;;1.90;;
77453;SDS011;66538;53.150;18.160;2023-07-13T13:44:20;4.30;;;1.70;;
77453;SDS011;66538;53.150;18.160;2023-07-13T13:46:48;4.90;;;1.70;;
77453;SDS011;66538;53.150;18.160;2023-07-13T13:49:18;4.00;;;1.70;;
77453;SDS011;66538;53.150;18.160;2023-07-13T13:51:48;4.20;;;1.70;;
77453;SDS011;66538;53.150;18.160;2023-07-13T13:54:16;4.70;;;1.90;;
77453;SDS011;66538;53.150;18.160;2023-07-13T13:56:44;3.60;;;1.60;;
77453;SDS011;66538;53.150;18.160;2023-07-13T13:59:13;4.10;;;1.60;;
77453;SDS011;66538;53.150;18.160;2023-07-13T14:04:10;4.50;;;2.00;;
77453;SDS011;66538;53.150;18.160;2023-07-13T14:06:47;4.50;;;1.80;;
77453;SDS011;66538;53.150;18.160;2023-07-13T14:09:17;4.50;;;1.80;;
77453;SDS011;66538;53.150;18.160;2023-07-13T14:11:45;4.70;;;1.70;;
77453;SDS011;66538;53.150;18.160;2023-07-13T14:14:16;3.40;;;1.50;;
77453;SDS011;66538;53.150;18.160;2023-07-13T14:16:45;4.50;;;1.70;;
77453;SDS011;66538;53.150;18.160;2023-07-13T14:19:13;4.20;;;1.50;;
77453;SDS011;66538;53.150;18.160;2023-07-13T14:21:41;3.90;;;1.70;;
77453;SDS011;66538;53.150;18.160;2023-07-13T14:24:07;4.60;;;1.80;;
77453;SDS011;66538;53.150;18.160;2023-07-13T14:26:36;3.00;;;1.40;;
77453;SDS011;66538;53.150;18.160;2023-07-13T14:29:10;6.20;;;1.90;;
77453;SDS011;66538;53.150;18.160;2023-07-13T14:31:39;3.00;;;1.40;;
77453;SDS011;66538;53.150;18.160;2023-07-13T14:36:37;6.00;;;1.60;;
77453;SDS011;66538;53.150;18.160;2023-07-13T14:39:11;5.20;;;1.80;;
77453;SDS011;66538;53.150;18.160;2023-07-13T14:41:49;5.40;;;1.80;;
77453;SDS011;66538;53.150;18.160;2023-07-13T14:44:21;3.40;;;1.60;;
77453;SDS011;66538;53.150;18.160;2023-07-13T14:46:52;5.20;;;2.00;;
77453;SDS011;66538;53.150;18.160;2023-07-13T14:52:05;4.20;;;1.60;;
77453;SDS011;66538;53.150;18.160;2023-07-13T14:54:37;3.20;;;1.40;;
77453;SDS011;66538;53.150;18.160;2023-07-13T14:57:10;6.20;;;2.00;;
77453;SDS011;66538;53.150;18.160;2023-07-13T14:59:42;4.70;;;1.60;;
77453;SDS011;66538;53.150;18.160;2023-07-13T15:04:47;3.60;;;1.50;;
77453;SDS011;66538;53.150;18.160;2023-07-13T15:07:14;5.70;;;1.50;;
77453;SDS011;66538;53.150;18.160;2023-07-13T15:09:42;3.10;;;1.30;;
77453;SDS011;66538;53.150;18.160;2023-07-13T15:12:08;5.60;;;1.80;;
77453;SDS011;66538;53.150;18.160;2023-07-13T15:14:35;4.30;;;1.60;;
77453;SDS011;66538;53.150;18.160;2023-07-13T15:17:02;5.50;;;1.50;;
77453;SDS011;66538;53.150;18.160;2023-07-13T15:19:29;3.50;;;1.50;;
77453;SDS011;66538;53.150;18.160;2023-07-13T15:21:57;5.20;;;1.60;;
77453;SDS011;66538;53.150;18.160;2023-07-13T15:24:24;3.50;;;1.50;;
77453;SDS011;66538;53.150;18.160;2023-07-13T15:26:52;3.30;;;1.50;;
77453;SDS011;66538;53.150;18.160;2023-07-13T15:29:18;3.90;;;1.50;;
77453;SDS011;66538;53.150;18.160;2023-07-13T15:31:45;3.30;;;1.30;;
77453;SDS011;66538;53.150;18.160;2023-07-13T15:34:13;4.30;;;1.30;;
77453;SDS011;66538;53.150;18.160;2023-07-13T15:36:47;3.00;;;1.00;;
77453;SDS011;66538;53.150;18.160;2023-07-13T15:39:14;2.90;;;1.00;;
77453;SDS011;66538;53.150;18.160;2023-07-13T15:41:45;3.50;;;1.10;;
77453;SDS011;66538;53.150;18.160;2023-07-13T15:44:23;2.70;;;1.20;;
77453;SDS011;66538;53.150;18.160;2023-07-13T15:46:55;2.50;;;1.00;;
77453;SDS011;66538;53.150;18.160;2023-07-13T15:49:22;2.80;;;1.00;;
77453;SDS011;66538;53.150;18.160;2023-07-13T15:54:17;2.50;;;0.80;;
77453;SDS011;66538;53.150;18.160;2023-07-13T15:56:46;4.70;;;1.30;;
77453;SDS011;66538;53.150;18.160;2023-07-13T15:59:17;2.90;;;1.20;;
77453;SDS011;66538;53.150;18.160;2023-07-13T16:04:12;3.00;;;1.30;;
77453;SDS011;66538;53.150;18.160;2023-07-13T16:06:40;3.50;;;1.00;;